Time;durP1;ratioP1;P1;durP2;ratioP2;P2;SDS_P1;SDS_P2;PMS_P1;PMS_P2;Temp;Humidity;BMP_temperature;BMP_pressure;BME280_temperature;BME280_humidity;BME280_pressure;Samples;Min_cycle;Max_cycle;Signal;HPM_P1;HPM_P2
2023/08/03 00:01:36;;;;;;;0.77;0.47;;;;;;;19.30;100.00;94999.47;5017125;28;20227;-67
2023/08/03 00:04:03;;;;;;;0.52;0.38;;;;;;;19.08;100.00;95020.97;5016263;28;20210;-67
2023/08/03 00:06:29;;;;;;;0.85;0.77;;;;;;;19.18;100.00;95004.19;5016831;28;20202;-67
2023/08/03 00:08:56;;;;;;;4.75;0.88;;;;;;;19.20;100.00;94992.19;5016127;28;20220;-67
2023/08/03 00:11:22;;;;;;;0.65;0.55;;;;;;;19.05;100.00;94996.63;5016405;28;20240;-67
2023/08/03 00:13:50;;;;;;;1.10;0.52;;;;;;;19.13;100.00;94994.31;5016509;28;21213;-67
2023/08/03 00:16:16;;;;;;;1.23;0.47;;;;;;;19.19;100.00;95000.47;5016620;28;20213;-67
2023/08/03 00:18:44;;;;;;;2.55;0.63;;;;;;;19.41;100.00;95007.28;5015820;28;20670;-67
2023/08/03 00:21:11;;;;;;;6.28;1.10;;;;;;;19.10;100.00;95012.72;5016268;28;20217;-67
2023/08/03 00:23:37;;;;;;;0.93;0.60;;;;;;;19.12;100.00;95021.28;5016969;28;20209;-67
2023/08/03 00:26:04;;;;;;;0.80;0.32;;;;;;;19.27;100.00;95024.00;5016171;28;20212;-67
2023/08/03 00:28:30;;;;;;;1.10;0.57;;;;;;;18.97;100.00;95029.16;5015460;28;20221;-67
2023/08/03 00:30:57;;;;;;;0.50;0.40;;;;;;;19.24;100.00;95029.88;5016857;28;20678;-67
2023/08/03 00:33:23;;;;;;;1.85;1.17;;;;;;;19.08;100.00;95036.19;5016403;28;20704;-68
2023/08/03 00:35:51;;;;;;;1.20;0.55;;;;;;;19.11;100.00;95030.34;5016171;28;20198;-67
2023/08/03 00:38:18;;;;;;;3.72;0.52;;;;;;;18.89;100.00;95021.63;5015665;28;20208;-66
2023/08/03 00:40:44;;;;;;;2.90;0.75;;;;;;;18.85;100.00;95019.72;5016359;28;20893;-67
2023/08/03 00:43:11;;;;;;;1.05;0.70;;;;;;;18.67;100.00;95018.28;5016133;28;20228;-67
2023/08/03 00:45:37;;;;;;;6.18;0.85;;;;;;;18.78;100.00;95014.59;5016503;28;20768;-68
2023/08/03 00:48:04;;;;;;;4.30;0.88;;;;;;;18.94;100.00;95009.09;5015358;28;20210;-67
2023/08/03 00:50:31;;;;;;;0.93;0.50;;;;;;;18.86;100.00;94992.75;5015981;28;20611;-67
2023/08/03 00:52:59;;;;;;;1.23;0.70;;;;;;;18.89;100.00;94999.44;5016423;28;20225;-67
2023/08/03 00:55:25;;;;;;;1.10;0.40;;;;;;;18.85;100.00;95001.84;5016254;28;20201;-67
2023/08/03 00:57:52;;;;;;;2.10;0.73;;;;;;;18.57;100.00;95015.53;5015242;28;20202;-67
2023/08/03 01:00:18;;;;;;;1.25;0.50;;;;;;;18.77;100.00;95017.53;5016240;28;20236;-67
2023/08/03 01:02:45;;;;;;;0.60;0.60;;;;;;;18.82;100.00;95021.03;5016032;28;20226;-67
2023/08/03 01:05:11;;;;;;;1.95;0.52;;;;;;;18.83;100.00;95011.97;5015652;28;20598;-67
2023/08/03 01:07:38;;;;;;;5.05;1.23;;;;;;;18.88;100.00;95012.00;5015570;28;20551;-67
2023/08/03 01:10:08;;;;;;;0.43;0.43;;;;;;;18.89;100.00;95026.97;5015859;28;20202;-68
2023/08/03 01:12:35;;;;;;;2.78;0.77;;;;;;;18.47;100.00;95023.44;5015896;28;21048;-67
2023/08/03 01:15:02;;;;;;;2.25;1.38;;;;;;;18.52;100.00;95028.81;5016453;28;20213;-67
2023/08/03 01:17:28;;;;;;;1.77;0.60;;;;;;;18.41;100.00;95021.78;5019469;28;20284;-67
2023/08/03 01:19:55;;;;;;;0.50;0.32;;;;;;;18.44;100.00;95026.63;5019085;28;20848;-67
2023/08/03 01:22:23;;;;;;;0.95;0.90;;;;;;;18.55;100.00;95025.63;5019197;28;20221;-68
2023/08/03 01:24:51;;;;;;;0.88;0.85;;;;;;;18.62;100.00;95026.25;5020441;28;20208;-67
2023/08/03 01:27:18;;;;;;;4.75;0.80;;;;;;;18.24;100.00;95033.63;5018916;28;20209;-67
2023/08/03 01:29:44;;;;;;;2.42;0.95;;;;;;;18.15;100.00;95027.13;5018965;28;20284;-67
2023/08/03 01:32:11;;;;;;;1.73;0.77;;;;;;;18.38;100.00;95024.16;5019561;28;20234;-67
2023/08/03 01:34:38;;;;;;;1.75;1.20;;;;;;;18.31;100.00;95030.75;5020346;28;20217;-67
2023/08/03 01:37:05;;;;;;;0.63;0.40;;;;;;;18.47;100.00;95026.09;5018199;28;20225;-67
2023/08/03 01:39:31;;;;;;;1.05;0.40;;;;;;;18.16;100.00;95027.91;5019058;28;20224;-67
2023/08/03 01:41:59;;;;;;;2.45;0.70;;;;;;;18.31;100.00;95020.09;5020063;28;20224;-67
2023/08/03 01:44:27;;;;;;;3.00;0.52;;;;;;;18.30;100.00;95015.81;5019111;28;20206;-68
2023/08/03 01:46:55;;;;;;;0.52;0.40;;;;;;;18.26;100.00;95004.03;5018668;28;20198;-67
2023/08/03 01:49:22;;;;;;;2.03;0.80;;;;;;;18.38;100.00;95008.97;5019335;28;20194;-67
2023/08/03 01:51:49;;;;;;;1.85;0.55;;;;;;;18.10;100.00;94999.59;5019393;28;20218;-67
2023/08/03 01:54:15;;;;;;;1.08;0.60;;;;;;;18.17;100.00;94989.53;5019143;28;20206;-67
2023/08/03 01:56:42;;;;;;;0.65;0.55;;;;;;;18.14;100.00;94966.03;5018679;28;20674;-67
2023/08/03 01:59:11;;;;;;;4.13;0.70;;;;;;;18.33;100.00;94964.63;5018106;28;20918;-67
2023/08/03 02:01:38;;;;;;;3.05;0.73;;;;;;;18.39;100.00;94973.22;5018868;28;20225;-67
2023/08/03 02:04:05;;;;;;;4.82;0.80;;;;;;;18.30;100.00;94984.59;5019079;28;20202;-67
2023/08/03 02:06:31;;;;;;;1.73;0.63;;;;;;;18.32;100.00;94974.50;5018961;28;20201;-67
2023/08/03 02:08:58;;;;;;;0.93;0.57;;;;;;;18.30;100.00;94991.81;5017834;28;20202;-67
2023/08/03 02:11:25;;;;;;;2.08;0.65;;;;;;;18.30;100.00;94997.16;5018222;28;20226;-67
2023/08/03 02:13:51;;;;;;;2.85;0.90;;;;;;;18.25;100.00;94997.09;5019078;28;20654;-66
2023/08/03 02:16:19;;;;;;;0.70;0.60;;;;;;;18.55;100.00;94987.47;5018221;28;20205;-67
2023/08/03 02:18:46;;;;;;;1.63;0.50;;;;;;;18.18;100.00;95012.50;5017799;28;20234;-67
2023/08/03 02:21:12;;;;;;;0.82;0.47;;;;;;;18.31;100.00;94998.75;5018494;28;20244;-67
2023/08/03 02:23:39;;;;;;;6.63;0.98;;;;;;;18.33;100.00;95012.63;5018447;28;20198;-67
2023/08/03 02:26:05;;;;;;;4.75;1.35;;;;;;;18.25;100.00;95018.44;5018059;28;20209;-67
2023/08/03 02:28:33;;;;;;;1.50;0.93;;;;;;;18.32;100.00;95024.34;5017909;28;20730;-67
2023/08/03 02:30:59;;;;;;;2.47;0.95;;;;;;;18.07;100.00;95027.56;5018319;28;20209;-67
2023/08/03 02:33:27;;;;;;;1.88;1.02;;;;;;;18.37;100.00;95026.00;5018427;28;20212;-67
2023/08/03 02:35:54;;;;;;;3.90;1.45;;;;;;;18.11;100.00;95030.53;5018701;28;20197;-67
2023/08/03 02:38:20;;;;;;;4.88;1.95;;;;;;;18.14;100.00;95022.84;5015610;28;20264;-67
2023/08/03 02:40:47;;;;;;;1.88;0.68;;;;;;;18.00;100.00;95023.50;5017670;28;20225;-67
2023/08/03 02:43:13;;;;;;;1.85;1.20;;;;;;;18.08;100.00;95036.38;5018817;28;20214;-67
2023/08/03 02:45:40;;;;;;;2.10;1.35;;;;;;;17.99;100.00;95040.53;5017967;28;20202;-67
2023/08/03 02:48:06;;;;;;;1.85;0.57;;;;;;;17.89;100.00;95043.88;5016833;28;20206;-67
2023/08/03 02:50:34;;;;;;;6.75;0.90;;;;;;;18.05;100.00;95039.53;5018001;28;20221;-67
2023/08/03 02:53:01;;;;;;;0.90;0.80;;;;;;;17.42;100.00;95028.69;5017963;28;20237;-67
2023/08/03 02:55:27;;;;;;;1.05;0.60;;;;;;;17.75;100.00;95029.34;5017560;28;20200;-67
2023/08/03 02:57:54;;;;;;;1.50;0.73;;;;;;;17.69;100.00;95039.41;5017338;28;20202;-68
2023/08/03 03:00:21;;;;;;;1.80;0.77;;;;;;;17.69;100.00;95032.19;5017466;28;20229;-67
2023/08/03 03:02:48;;;;;;;5.25;1.10;;;;;;;17.71;100.00;95032.78;5017491;28;20224;-67
2023/08/03 03:05:15;;;;;;;2.97;0.80;;;;;;;17.81;100.00;95032.88;5017534;28;20226;-67
2023/08/03 03:07:42;;;;;;;1.80;0.80;;;;;;;17.78;100.00;95038.69;5017080;28;20202;-67
2023/08/03 03:10:10;;;;;;;2.30;0.75;;;;;;;17.67;100.00;95031.66;5017483;28;20937;-67
2023/08/03 03:12:36;;;;;;;1.10;0.57;;;;;;;17.61;100.00;95053.94;5017360;28;20233;-67
2023/08/03 03:15:03;;;;;;;7.00;1.10;;;;;;;17.74;100.00;95058.91;5018041;28;20206;-67
2023/08/03 03:17:29;;;;;;;1.65;0.75;;;;;;;17.61;100.00;95067.28;5016752;28;20232;-67
2023/08/03 03:19:56;;;;;;;1.85;0.95;;;;;;;17.62;100.00;95060.91;5017145;28;20251;-67
2023/08/03 03:22:22;;;;;;;1.13;0.63;;;;;;;17.63;100.00;95065.19;5017021;28;20229;-67
2023/08/03 03:24:50;;;;;;;2.55;1.00;;;;;;;17.86;100.00;95072.91;5017283;28;20202;-67
2023/08/03 03:27:17;;;;;;;1.42;1.00;;;;;;;17.52;100.00;95079.41;5016600;28;20228;-67
2023/08/03 03:29:43;;;;;;;3.97;0.75;;;;;;;17.46;100.00;95075.06;5017397;28;20296;-67
2023/08/03 03:32:10;;;;;;;0.68;0.50;;;;;;;17.50;100.00;95078.88;5016970;28;20226;-67
2023/08/03 03:34:36;;;;;;;4.43;0.90;;;;;;;17.41;100.00;95080.34;5017208;28;20216;-67
2023/08/03 03:37:03;;;;;;;1.23;0.50;;;;;;;17.18;100.00;95069.88;5016447;28;20578;-67
2023/08/03 03:39:29;;;;;;;5.60;0.80;;;;;;;17.25;100.00;95075.84;5016668;28;20576;-67
2023/08/03 03:41:57;;;;;;;1.13;0.55;;;;;;;17.43;100.00;95067.59;5016968;28;20226;-67
2023/08/03 03:44:24;;;;;;;1.27;0.50;;;;;;;17.35;100.00;95062.69;5016615;28;20202;-67
2023/08/03 03:46:50;;;;;;;3.53;0.63;;;;;;;17.22;100.00;95057.69;5016896;28;20216;-67
2023/08/03 03:49:17;;;;;;;2.25;0.70;;;;;;;17.21;100.00;95056.06;5016529;28;20202;-67
2023/08/03 03:51:43;;;;;;;1.38;0.60;;;;;;;17.48;100.00;95059.66;5016652;28;20340;-67
2023/08/03 03:54:10;;;;;;;4.45;1.25;;;;;;;17.53;100.00;95065.06;5017493;28;20212;-66
2023/08/03 03:56:36;;;;;;;4.18;0.63;;;;;;;17.48;100.00;95057.00;5017187;28;20216;-67
2023/08/03 03:59:04;;;;;;;3.05;1.17;;;;;;;17.87;100.00;95058.53;5015402;28;20206;-67
2023/08/03 04:01:31;;;;;;;4.78;0.63;;;;;;;17.79;100.00;95072.28;5016391;28;20248;-67
2023/08/03 04:03:57;;;;;;;1.95;1.17;;;;;;;17.77;100.00;95063.75;5017497;28;20284;-67
2023/08/03 04:06:24;;;;;;;0.90;0.50;;;;;;;17.76;100.00;95070.13;5016563;28;20573;-67
2023/08/03 04:08:50;;;;;;;4.25;0.73;;;;;;;17.67;100.00;95068.97;5016098;28;20198;-67
2023/08/03 04:11:17;;;;;;;1.88;1.15;;;;;;;17.64;100.00;95069.44;5016709;28;20225;-67
2023/08/03 04:13:44;;;;;;;2.58;0.75;;;;;;;17.68;100.00;95085.75;5016482;28;20622;-67
2023/08/03 04:16:12;;;;;;;1.48;0.60;;;;;;;17.87;100.00;95074.50;5016428;28;20846;-67
2023/08/03 04:18:39;;;;;;;1.38;0.40;;;;;;;17.59;100.00;95082.72;5015891;28;20583;-67
2023/08/03 04:21:05;;;;;;;0.70;0.30;;;;;;;17.54;100.00;95095.16;5016462;28;20230;-67
2023/08/03 04:23:32;;;;;;;0.82;0.50;;;;;;;17.52;100.00;95103.38;5016311;28;20202;-67
2023/08/03 04:25:59;;;;;;;5.30;1.02;;;;;;;17.29;100.00;95102.81;5016591;28;20205;-67
2023/08/03 04:28:25;;;;;;;0.40;0.30;;;;;;;17.39;100.00;95101.09;5015282;28;20205;-67
2023/08/03 04:30:52;;;;;;;3.72;0.57;;;;;;;17.33;100.00;95099.41;5016208;28;20198;-67
2023/08/03 04:33:20;;;;;;;3.10;0.40;;;;;;;17.61;100.00;95104.56;5016629;28;20201;-67
2023/08/03 04:35:46;;;;;;;1.70;0.50;;;;;;;17.17;100.00;95116.19;5016712;28;20213;-67
2023/08/03 04:38:13;;;;;;;0.30;0.30;;;;;;;17.28;100.00;95111.84;5015413;28;20216;-67
2023/08/03 04:40:39;;;;;;;5.72;0.70;;;;;;;17.30;100.00;95115.88;5016292;28;20226;-67
2023/08/03 04:43:06;;;;;;;2.42;0.57;;;;;;;17.20;100.00;95115.69;5015990;28;20248;-67
2023/08/03 04:45:32;;;;;;;4.95;0.73;;;;;;;17.55;100.00;95113.53;5016324;28;20252;-66
2023/08/03 04:47:59;;;;;;;2.28;0.70;;;;;;;17.60;100.00;95105.63;5015810;28;20230;-67
2023/08/03 04:50:27;;;;;;;0.75;0.40;;;;;;;17.74;100.00;95109.53;5018998;28;20198;-67
2023/08/03 04:52:53;;;;;;;3.20;0.70;;;;;;;17.31;100.00;95124.66;5020429;28;20222;-67
2023/08/03 04:55:20;;;;;;;2.60;0.40;;;;;;;17.44;100.00;95117.13;5020121;28;20279;-67
2023/08/03 04:57:46;;;;;;;3.63;0.30;;;;;;;17.71;100.00;95118.03;5019248;28;20201;-66
2023/08/03 05:00:14;;;;;;;2.28;0.60;;;;;;;17.86;100.00;95126.22;5019907;28;20210;-67
2023/08/03 05:02:40;;;;;;;0.95;0.57;;;;;;;17.82;100.00;95125.13;5019937;28;20326;-67
2023/08/03 05:05:08;;;;;;;1.55;0.60;;;;;;;18.08;100.00;95135.00;5019665;28;20212;-67
2023/08/03 05:07:35;;;;;;;0.90;0.57;;;;;;;18.14;100.00;95134.00;5019581;28;20205;-67
2023/08/03 05:10:02;;;;;;;5.85;0.60;;;;;;;18.02;100.00;95136.78;5019866;28;20210;-66
2023/08/03 05:12:29;;;;;;;1.33;0.55;;;;;;;17.98;100.00;95142.88;5018914;28;20575;-66
2023/08/03 05:14:55;;;;;;;1.50;0.68;;;;;;;17.97;100.00;95151.94;5019651;28;20205;-66
2023/08/03 05:17:22;;;;;;;0.73;0.40;;;;;;;18.11;100.00;95139.84;5019513;28;20216;-66
2023/08/03 05:19:49;;;;;;;5.50;0.93;;;;;;;18.42;100.00;95156.75;5019443;28;20198;-67
2023/08/03 05:22:15;;;;;;;1.75;0.50;;;;;;;18.45;100.00;95152.78;5019024;28;20232;-66
2023/08/03 05:24:43;;;;;;;6.90;0.70;;;;;;;18.62;100.00;95159.66;5019985;28;20208;-67
2023/08/03 05:27:10;;;;;;;1.65;0.50;;;;;;;18.47;100.00;95162.16;5018694;28;20208;-67
2023/08/03 05:29:37;;;;;;;0.32;0.30;;;;;;;18.47;100.00;95148.81;5019343;28;20194;-66
2023/08/03 05:32:04;;;;;;;2.50;0.77;;;;;;;18.56;100.00;95154.53;5020261;28;21402;-66
2023/08/03 05:34:31;;;;;;;3.75;0.70;;;;;;;18.67;100.00;95156.22;5019367;28;20371;-66
2023/08/03 05:36:58;;;;;;;0.40;0.40;;;;;;;18.74;100.00;95162.16;5018243;28;20681;-67
2023/08/03 05:39:26;;;;;;;1.48;0.60;;;;;;;18.85;100.00;95174.53;5019276;28;20692;-66
2023/08/03 05:41:55;;;;;;;1.27;0.55;;;;;;;19.10;100.00;95172.94;5019802;28;20658;-66
2023/08/03 05:44:21;;;;;;;4.15;0.55;;;;;;;19.02;100.00;95181.38;5019368;28;20233;-66
2023/08/03 05:46:48;;;;;;;2.47;0.73;;;;;;;19.17;100.00;95189.53;5019164;28;20204;-67
2023/08/03 05:49:14;;;;;;;4.32;0.40;;;;;;;19.02;100.00;95186.72;5018560;28;20216;-66
2023/08/03 05:51:41;;;;;;;0.80;0.57;;;;;;;19.07;100.00;95189.47;5018640;28;20223;-67
2023/08/03 05:54:13;;;;;;;0.85;0.30;;;;;;;19.28;99.57;95188.56;5019162;28;20216;-66
2023/08/03 05:56:40;;;;;;;0.20;0.20;;;;;;;19.36;99.22;95198.78;5018586;28;20209;-67
2023/08/03 05:59:19;;;;;;;3.42;0.32;;;;;;;19.61;95.69;95192.56;5018179;28;20209;-67
2023/08/03 06:01:48;;;;;;;0.98;0.65;;;;;;;19.58;98.75;95182.38;5017956;28;20228;-67
2023/08/03 06:04:15;;;;;;;4.88;0.32;;;;;;;19.64;96.55;95183.25;5018903;28;20206;-67
2023/08/03 06:06:42;;;;;;;0.17;0.17;;;;;;;19.60;97.90;95198.16;5018782;28;20206;-67
2023/08/03 06:09:11;;;;;;;0.20;0.20;;;;;;;19.91;96.36;95186.63;5018161;28;20225;-66
2023/08/03 06:11:37;;;;;;;0.30;0.30;;;;;;;19.52;96.99;95187.16;5018857;28;20225;-67
2023/08/03 06:14:05;;;;;;;0.60;0.43;;;;;;;19.74;96.07;95202.81;5018915;28;20677;-66
2023/08/03 06:16:33;;;;;;;0.20;0.20;;;;;;;19.81;94.25;95192.69;5018171;28;20201;-67
2023/08/03 06:19:00;;;;;;;0.40;0.40;;;;;;;19.61;92.95;95199.75;5017559;28;20729;-66
2023/08/03 06:21:27;;;;;;;3.33;0.45;;;;;;;19.82;93.84;95194.31;5018752;28;20690;-67
2023/08/03 06:23:57;;;;;;;0.20;0.20;;;;;;;19.85;93.51;95183.06;5018010;28;20201;-67
2023/08/03 06:26:24;;;;;;;0.38;0.38;;;;;;;19.89;94.50;95197.53;5018244;28;20661;-67
2023/08/03 06:28:50;;;;;;;0.85;0.25;;;;;;;19.82;93.38;95199.66;5017805;28;20208;-66
2023/08/03 06:31:18;;;;;;;0.10;0.10;;;;;;;19.96;92.16;95208.84;5017893;28;20232;-67
2023/08/03 06:33:47;;;;;;;0.20;0.20;;;;;;;20.05;92.25;95211.81;5018242;28;20198;-66
2023/08/03 06:36:18;;;;;;;0.85;0.28;;;;;;;20.32;93.69;95213.31;5017474;28;20210;-67
2023/08/03 06:38:45;;;;;;;0.30;0.30;;;;;;;20.09;91.72;95226.31;5016953;28;20201;-67
2023/08/03 06:41:12;;;;;;;1.00;0.22;;;;;;;20.32;90.65;95221.34;5017708;28;20229;-67
2023/08/03 06:43:38;;;;;;;0.17;0.17;;;;;;;20.46;89.67;95223.25;5017260;28;20210;-66
2023/08/03 06:46:05;;;;;;;0.55;0.35;;;;;;;20.54;88.87;95205.91;5017065;28;20206;-67
2023/08/03 06:48:33;;;;;;;0.20;0.20;;;;;;;20.39;87.25;95203.97;5017073;28;20202;-66
2023/08/03 06:51:02;;;;;;;0.25;0.20;;;;;;;20.73;86.53;95212.44;5018281;28;20232;-67
2023/08/03 06:53:28;;;;;;;1.65;0.45;;;;;;;20.61;86.73;95209.94;5016937;28;20217;-66
2023/08/03 06:55:55;;;;;;;0.10;0.10;;;;;;;20.49;86.14;95211.22;5017314;28;20663;-67
2023/08/03 06:58:22;;;;;;;2.30;0.20;;;;;;;20.48;85.31;95209.63;5016717;28;20292;-67
2023/08/03 07:00:49;;;;;;;1.10;0.65;;;;;;;20.67;85.48;95216.13;5016445;28;20548;-67
2023/08/03 07:03:16;;;;;;;3.20;0.40;;;;;;;20.52;85.71;95237.47;5016631;28;20323;-66
2023/08/03 07:05:43;;;;;;;1.73;0.30;;;;;;;20.64;84.52;95232.72;5017153;28;20202;-67
2023/08/03 07:08:11;;;;;;;2.38;0.40;;;;;;;20.98;83.46;95226.69;5014438;28;20779;-67
2023/08/03 07:10:38;;;;;;;0.10;0.10;;;;;;;20.96;83.07;95244.88;5015835;28;20200;-66
2023/08/03 07:13:05;;;;;;;0.10;0.10;;;;;;;20.94;82.53;95237.09;5015791;28;20285;-67
2023/08/03 07:15:33;;;;;;;0.10;0.10;;;;;;;21.12;83.60;95241.97;5016792;28;20685;-67
2023/08/03 07:18:00;;;;;;;0.10;0.10;;;;;;;21.16;82.32;95235.00;5015763;28;20209;-66
2023/08/03 07:20:27;;;;;;;0.15;0.15;;;;;;;20.94;82.28;95245.16;5017138;28;20208;-67
2023/08/03 07:22:54;;;;;;;0.32;0.10;;;;;;;20.94;81.98;95242.47;5016120;28;21018;-67
2023/08/03 07:25:22;;;;;;;0.10;0.10;;;;;;;21.47;80.93;95247.34;5016239;28;20226;-67
2023/08/03 07:27:48;;;;;;;0.52;0.20;;;;;;;21.32;81.33;95239.31;5015803;28;20201;-67
2023/08/03 07:30:15;;;;;;;0.85;0.30;;;;;;;21.54;81.64;95253.31;5016668;28;20205;-67
2023/08/03 07:32:41;;;;;;;2.38;0.68;;;;;;;21.55;78.34;95250.34;5016537;28;20224;-67
2023/08/03 07:35:08;;;;;;;0.13;0.13;;;;;;;21.67;76.87;95240.16;5016742;28;20205;-67
2023/08/03 07:37:35;;;;;;;1.10;0.20;;;;;;;21.64;75.99;95256.78;5015784;28;20221;-67
2023/08/03 07:40:01;;;;;;;1.55;0.50;;;;;;;21.73;78.93;95249.03;5016506;28;20560;-67
2023/08/03 07:42:30;;;;;;;0.03;0.03;;;;;;;21.99;75.37;95246.03;5016656;28;21035;-67
2023/08/03 07:44:56;;;;;;;4.47;0.45;;;;;;;21.80;75.28;95244.97;5016845;28;20208;-67
2023/08/03 07:47:23;;;;;;;0.73;0.05;;;;;;;21.87;71.35;95247.38;5015247;28;20198;-67
2023/08/03 07:49:49;;;;;;;0.10;0.10;;;;;;;21.64;70.04;95258.69;5016533;28;20808;-67
2023/08/03 07:52:16;;;;;;;0.10;0.10;;;;;;;21.61;68.36;95260.03;5016632;28;20315;-67
2023/08/03 07:54:42;;;;;;;0.55;0.10;;;;;;;21.53;67.35;95273.13;5015385;28;20759;-67
2023/08/03 07:57:15;;;;;;;0.15;0.15;;;;;;;21.56;66.63;95269.91;5015046;28;20674;-66
2023/08/03 07:59:43;;;;;;;0.25;0.10;;;;;;;21.60;68.54;95269.13;5016944;28;20198;-66
2023/08/03 08:02:09;;;;;;;0.10;0.10;;;;;;;21.22;67.81;95274.16;5016167;28;20409;-67
2023/08/03 08:04:36;;;;;;;0.00;0.00;;;;;;;21.32;66.47;95270.66;5015503;28;20201;-67
2023/08/03 08:07:03;;;;;;;0.10;0.10;;;;;;;21.81;66.94;95275.28;5015198;28;21092;-67
2023/08/03 08:09:30;;;;;;;0.10;0.10;;;;;;;21.72;65.90;95276.91;5017000;28;20197;-66
2023/08/03 08:11:56;;;;;;;0.10;0.10;;;;;;;21.91;65.24;95286.03;5015934;28;20831;-67
2023/08/03 08:14:23;;;;;;;3.20;0.20;;;;;;;22.06;65.26;95284.13;5015600;28;20205;-67
2023/08/03 08:16:51;;;;;;;0.10;0.10;;;;;;;22.22;65.24;95283.84;5016128;28;20206;-67
2023/08/03 08:19:17;;;;;;;2.25;0.75;;;;;;;22.03;63.60;95289.22;5015915;28;20202;-67
2023/08/03 08:21:44;;;;;;;0.20;0.10;;;;;;;22.06;63.33;95286.81;5015348;28;20235;-67
2023/08/03 08:24:10;;;;;;;0.10;0.10;;;;;;;22.16;62.51;95279.53;5015925;28;20217;-67
2023/08/03 08:26:37;;;;;;;1.17;0.20;;;;;;;22.10;63.74;95280.63;5016467;28;20212;-67
2023/08/03 08:29:03;;;;;;;0.17;0.17;;;;;;;22.50;63.98;95277.88;5015269;28;20205;-67
2023/08/03 08:31:30;;;;;;;0.00;0.00;;;;;;;22.49;62.56;95278.97;5016449;28;20217;-67
2023/08/03 08:33:58;;;;;;;0.32;0.28;;;;;;;22.89;62.14;95278.81;5016022;28;20859;-67
2023/08/03 08:36:25;;;;;;;0.20;0.20;;;;;;;22.90;62.27;95269.69;5016048;28;20206;-67
2023/08/03 08:38:51;;;;;;;0.32;0.28;;;;;;;22.83;61.55;95275.31;5015714;28;20212;-67
2023/08/03 08:41:18;;;;;;;0.52;0.20;;;;;;;22.54;59.76;95273.56;5015816;28;20720;-66
2023/08/03 08:43:44;;;;;;;0.55;0.30;;;;;;;22.79;61.30;95278.84;5016369;28;20199;-67
2023/08/03 08:46:11;;;;;;;0.20;0.20;;;;;;;22.82;60.51;95267.53;5016387;28;20665;-67
2023/08/03 08:48:37;;;;;;;0.55;0.55;;;;;;;22.88;60.07;95277.19;5015896;28;20697;-67
2023/08/03 08:51:06;;;;;;;0.20;0.20;;;;;;;23.26;59.54;95273.81;5016234;28;20228;-67
2023/08/03 08:53:33;;;;;;;0.85;0.20;;;;;;;23.07;60.04;95275.53;5016699;28;20201;-67
2023/08/03 08:56:00;;;;;;;0.40;0.40;;;;;;;23.39;59.53;95280.16;5016762;28;20210;-67
2023/08/03 08:58:27;;;;;;;0.30;0.30;;;;;;;23.36;58.08;95283.41;5015264;28;20205;-66
2023/08/03 09:01:02;;;;;;;0.20;0.20;;;;;;;23.37;57.70;95279.66;5016446;28;20579;-67
2023/08/03 09:03:45;;;;;;;1.88;0.28;;;;;;;23.79;57.80;95293.38;5015698;28;20312;-67
2023/08/03 09:06:13;;;;;;;0.15;0.15;;;;;;;23.85;57.88;95283.38;5015926;28;20201;-67
2023/08/03 09:08:49;;;;;;;0.30;0.15;;;;;;;24.10;56.67;95297.41;5015860;28;20206;-67
2023/08/03 09:11:16;;;;;;;0.25;0.25;;;;;;;23.35;57.58;95295.25;5015427;28;20678;-67
2023/08/03 09:13:42;;;;;;;0.10;0.10;;;;;;;23.52;55.20;95262.59;5015733;28;20202;-66
2023/08/03 09:16:23;;;;;;;1.65;0.57;;;;;;;24.22;55.92;95284.38;5016704;28;20213;-67
2023/08/03 09:18:49;;;;;;;0.20;0.20;;;;;;;24.03;56.19;95302.31;5016340;28;20210;-66
2023/08/03 09:21:19;;;;;;;0.10;0.10;;;;;;;23.77;54.39;95300.91;5015743;28;20226;-67
2023/08/03 09:23:46;;;;;;;0.00;0.00;;;;;;;23.49;54.88;95307.00;5015245;28;20233;-67
2023/08/03 09:26:12;;;;;;;0.10;0.10;;;;;;;23.66;54.39;95304.75;5016088;28;20582;-68
2023/08/03 09:28:40;;;;;;;0.10;0.10;;;;;;;23.98;55.05;95318.50;5015210;28;20301;-67
2023/08/03 09:31:08;;;;;;;0.30;0.30;;;;;;;23.98;54.50;95318.50;5015924;28;20225;-67
2023/08/03 09:33:35;;;;;;;0.20;0.20;;;;;;;24.17;55.87;95317.53;5016955;28;20752;-67
2023/08/03 09:36:03;;;;;;;0.85;0.15;;;;;;;24.31;55.66;95314.97;5015947;28;20524;-67
2023/08/03 09:38:31;;;;;;;0.20;0.13;;;;;;;24.73;55.56;95315.91;5018467;28;20205;-66
2023/08/03 09:40:58;;;;;;;0.77;0.20;;;;;;;24.38;55.38;95326.25;5019256;28;20728;-66
2023/08/03 09:43:26;;;;;;;0.15;0.15;;;;;;;23.34;54.34;95330.47;5018775;28;20222;-67
2023/08/03 09:45:53;;;;;;;0.17;0.00;;;;;;;23.02;55.08;95332.00;5019025;28;20209;-67
2023/08/03 09:48:20;;;;;;;0.10;0.10;;;;;;;22.82;56.24;95340.09;5018680;28;20585;-67
2023/08/03 09:50:51;;;;;;;0.32;0.20;;;;;;;23.29;55.91;95343.16;5018812;28;20244;-67
2023/08/03 09:53:22;;;;;;;0.43;0.20;;;;;;;23.28;55.90;95336.16;5018681;28;20572;-67
2023/08/03 09:55:58;;;;;;;0.10;0.10;;;;;;;23.30;55.50;95344.78;5018809;28;20202;-67
2023/08/03 09:58:30;;;;;;;0.10;0.10;;;;;;;23.76;55.75;95344.25;5018644;28;20201;-67
2023/08/03 10:00:59;;;;;;;0.03;0.00;;;;;;;23.44;56.38;95336.59;5018875;28;20220;-67
2023/08/03 10:03:29;;;;;;;0.20;0.20;;;;;;;23.42;55.85;95344.16;5018589;28;20226;-67
2023/08/03 10:06:00;;;;;;;0.95;0.10;;;;;;;23.53;56.00;95340.31;5018414;28;20240;-67
2023/08/03 10:08:31;;;;;;;1.48;0.25;;;;;;;23.88;55.77;95342.81;5018380;28;20216;-67
2023/08/03 10:11:02;;;;;;;0.10;0.10;;;;;;;23.92;55.96;95350.03;5018775;28;20221;-67
2023/08/03 10:13:32;;;;;;;0.10;0.10;;;;;;;23.60;56.44;95343.50;5018871;28;20229;-67
2023/08/03 10:16:00;;;;;;;0.10;0.10;;;;;;;23.57;55.38;95351.31;5018953;28;20685;-67
2023/08/03 10:18:28;;;;;;;0.70;0.25;;;;;;;23.77;56.02;95343.97;5017423;28;20209;-67
2023/08/03 10:20:55;;;;;;;0.25;0.25;;;;;;;23.66;56.00;95347.78;5017831;28;20198;-67
2023/08/03 10:23:22;;;;;;;0.10;0.10;;;;;;;23.58;55.24;95352.94;5017141;28;20594;-67
2023/08/03 10:25:54;;;;;;;0.30;0.10;;;;;;;24.17;55.60;95346.34;5018019;28;20202;-67
2023/08/03 10:28:23;;;;;;;1.13;0.20;;;;;;;24.36;56.86;95352.63;5017155;28;20216;-67
2023/08/03 10:34:15;;;;;;;0.10;0.10;;;;;;;24.61;54.82;95374.78;5094615;27;21456;-67
2023/08/03 10:36:48;;;;;;;0.20;0.20;;;;;;;24.30;54.73;95369.91;5090595;28;20702;-67
2023/08/03 10:39:18;;;;;;;1.67;0.20;;;;;;;24.06;55.36;95366.38;5093748;28;20617;-67
2023/08/03 10:41:49;;;;;;;0.10;0.10;;;;;;;24.47;54.61;95373.84;5094135;28;20709;-67
2023/08/03 10:44:25;;;;;;;0.10;0.10;;;;;;;24.41;52.65;95358.00;5094117;28;20199;-67
2023/08/03 10:46:53;;;;;;;0.15;0.15;;;;;;;24.43;54.09;95356.66;5093513;28;20213;-67
2023/08/03 10:49:52;;;;;;;0.20;0.20;;;;;;;25.02;55.00;95344.41;5093470;28;20210;-67
2023/08/03 10:52:29;;;;;;;1.38;0.35;;;;;;;25.32;54.40;95341.41;5093896;28;20227;-67
2023/08/03 10:54:57;;;;;;;0.10;0.10;;;;;;;24.62;53.76;95344.88;5093786;28;20323;-67
2023/08/03 10:57:27;;;;;;;0.10;0.10;;;;;;;24.62;52.96;95333.28;5093231;28;20199;-67
2023/08/03 10:59:55;;;;;;;0.10;0.10;;;;;;;24.23;54.14;95340.63;5093956;28;20207;-67
2023/08/03 11:02:28;;;;;;;0.28;0.10;;;;;;;24.33;51.53;95342.44;5093808;28;20613;-67
2023/08/03 11:04:55;;;;;;;0.10;0.10;;;;;;;24.25;52.17;95346.53;5093922;28;20272;-67
2023/08/03 11:07:24;;;;;;;0.38;0.20;;;;;;;24.85;52.26;95345.97;5092624;28;20756;-67
2023/08/03 11:09:53;;;;;;;0.10;0.10;;;;;;;24.95;51.82;95356.63;5093777;28;20211;-67
2023/08/03 11:12:22;;;;;;;0.00;0.00;;;;;;;24.56;52.19;95356.78;5093562;28;20292;-67
2023/08/03 11:14:50;;;;;;;0.10;0.10;;;;;;;24.55;51.89;95348.97;5093238;28;21367;-67
2023/08/03 11:17:20;;;;;;;0.00;0.00;;;;;;;24.72;52.69;95363.63;5092837;28;20203;-67
2023/08/03 11:19:46;;;;;;;0.15;0.15;;;;;;;24.88;51.97;95364.28;5093666;28;20214;-67
2023/08/03 11:22:13;;;;;;;0.20;0.20;;;;;;;24.57;51.46;95362.97;5093210;28;20218;-67
2023/08/03 11:24:40;;;;;;;0.00;0.00;;;;;;;24.56;51.49;95360.56;5092975;28;20654;-67
2023/08/03 11:27:08;;;;;;;0.63;0.50;;;;;;;24.88;51.06;95362.38;5092471;28;20235;-67
2023/08/03 11:29:36;;;;;;;0.00;0.00;;;;;;;24.63;50.58;95369.91;5093026;28;20581;-67
2023/08/03 11:32:03;;;;;;;0.50;0.20;;;;;;;24.47;51.16;95392.69;5093370;28;20234;-67
2023/08/03 11:34:30;;;;;;;0.15;0.13;;;;;;;24.54;51.66;95354.66;5092998;28;20218;-67